Terminal Aerodrome Forecast
Issued by NWS

Current Version | Previous Version | Graphics & Text | Print | Product List | Glossary On
Versions: 1 2 3 4 5 6 7 8 9 10 11 12 13 14 15 16 17 18 19 20 21 22 23 24 25 26 27
000
FTUS41 KRLX 182100 AAA
TAFCKB
TAF AMD
KCKB 182122Z 1821/1918 30010KT P6SM BKN040 OVC050
     FM182200 28007KT P6SM OVC025
     FM190200 29007KT P6SM OVC020
     FM190900 30007KT 6SM BR BKN015
     FM191000 30007KT 5SM BR BKN010
     FM191200 29006KT 4SM BR SCT010
     FM191600 28006KT P6SM SCT040=

USA.gov is the U.S. government's official web portal to all federal, state and local government web resources and services.